Time;durP1;ratioP1;P1;durP2;ratioP2;P2;SDS_P1;SDS_P2;PMS_P1;PMS_P2;Temp;Humidity;BMP_temperature;BMP_pressure;BME280_temperature;BME280_humidity;BME280_pressure;Samples;Min_cycle;Max_cycle;Signal;HPM_P1;HPM_P2
2021/12/04 00:02:05;;;;;;;13.68;7.47;;;;;;;;;;4841742;29;20038;-76
2021/12/04 00:04:34;;;;;;;17.05;9.32;;;;;;;;;;4840975;29;20026;-77
2021/12/04 00:07:00;;;;;;;20.75;10.52;;;;;;;;;;4831512;29;20125;-76
2021/12/04 00:09:28;;;;;;;20.88;11.40;;;;;;;;;;4830731;29;20041;-76
2021/12/04 00:11:57;;;;;;;45.65;21.77;;;;;;;;;;4823496;29;20125;-76
2021/12/04 00:14:23;;;;;;;49.63;23.80;;;;;;;;;;4834815;29;20037;-76
2021/12/04 00:16:49;;;;;;;56.55;28.10;;;;;;;;;;4841462;29;20038;-76
2021/12/04 00:19:16;;;;;;;19.63;10.40;;;;;;;;;;4831097;29;20083;-77
2021/12/04 00:21:42;;;;;;;19.75;11.70;;;;;;;;;;4823105;29;20069;-76
2021/12/04 00:24:08;;;;;;;16.35;10.00;;;;;;;;;;4829909;29;20060;-76
2021/12/04 00:26:34;;;;;;;18.55;10.00;;;;;;;;;;4841156;29;20066;-77
2021/12/04 00:29:00;;;;;;;18.50;9.75;;;;;;;;;;4840669;29;20032;-76
2021/12/04 00:31:27;;;;;;;15.43;8.30;;;;;;;;;;4841246;29;20046;-76
2021/12/04 00:33:54;;;;;;;16.90;8.88;;;;;;;;;;4837969;29;20026;-76
2021/12/04 00:36:29;;;;;;;17.90;9.57;;;;;;;;;;4822660;29;20035;-76
2021/12/04 00:49:56;;;;;;;31.17;15.75;;;;;;;;;;4837145;29;20053;-76
2021/12/04 00:52:22;;;;;;;43.47;18.92;;;;;;;;;;4841027;29;20042;-76
2021/12/04 00:54:48;;;;;;;34.00;13.98;;;;;;;;;;4841043;29;20042;-76
2021/12/04 00:57:14;;;;;;;21.67;10.07;;;;;;;;;;4840937;29;20045;-76
2021/12/04 00:59:40;;;;;;;58.80;20.88;;;;;;;;;;4825513;29;20135;-76
2021/12/04 01:02:06;;;;;;;49.00;17.75;;;;;;;;;;4822519;29;20075;-76
2021/12/04 01:04:33;;;;;;;20.83;10.18;;;;;;;;;;4834505;29;20045;-76
2021/12/04 01:06:59;;;;;;;12.43;6.97;;;;;;;;;;4840365;29;20030;-77
2021/12/04 01:09:26;;;;;;;9.27;3.63;;;;;;;;;;4839562;29;20597;-76
2021/12/04 01:11:52;;;;;;;8.80;4.35;;;;;;;;;;4840247;29;20373;-76
2021/12/04 01:14:20;;;;;;;9.35;5.32;;;;;;;;;;4831935;29;20494;-76
2021/12/04 01:16:47;;;;;;;9.07;5.03;;;;;;;;;;4833133;29;20037;-77
2021/12/04 01:19:18;;;;;;;27.55;19.88;;;;;;;;;;4840193;29;20038;-76
2021/12/04 01:21:44;;;;;;;18.73;10.18;;;;;;;;;;4839552;29;20046;-76
2021/12/04 01:24:11;;;;;;;19.33;11.63;;;;;;;;;;4840264;29;20037;-76
2021/12/04 01:26:37;;;;;;;16.13;8.38;;;;;;;;;;4832994;29;20548;-77
2021/12/04 01:29:03;;;;;;;17.45;7.40;;;;;;;;;;4822204;29;20496;-76
2021/12/04 01:31:29;;;;;;;14.02;9.05;;;;;;;;;;4826112;29;20042;-77
2021/12/04 01:33:55;;;;;;;14.27;8.23;;;;;;;;;;4840347;29;20030;-77
2021/12/04 01:36:21;;;;;;;12.90;7.65;;;;;;;;;;4839414;29;20087;-77
2021/12/04 01:38:47;;;;;;;12.77;8.60;;;;;;;;;;4838784;29;20707;-76
2021/12/04 01:41:14;;;;;;;14.20;9.20;;;;;;;;;;4833290;29;20069;-76
2021/12/04 01:43:40;;;;;;;15.63;9.63;;;;;;;;;;4839744;29;20053;-76
2021/12/04 01:46:06;;;;;;;16.90;10.57;;;;;;;;;;4840107;29;20457;-76
2021/12/04 01:48:32;;;;;;;12.80;8.10;;;;;;;;;;4839035;29;20037;-76
2021/12/04 01:50:58;;;;;;;9.27;5.05;;;;;;;;;;4839813;29;20116;-77
2021/12/04 01:53:25;;;;;;;9.88;5.80;;;;;;;;;;4826083;29;20155;-76
2021/12/04 01:55:52;;;;;;;11.63;6.50;;;;;;;;;;4821672;29;20534;-76
2021/12/04 01:58:19;;;;;;;9.73;6.13;;;;;;;;;;4825085;29;20037;-76
2021/12/04 02:00:45;;;;;;;12.73;7.10;;;;;;;;;;4840046;29;20046;-76
2021/12/04 02:03:13;;;;;;;13.75;8.35;;;;;;;;;;4839407;29;20553;-76
2021/12/04 02:05:40;;;;;;;10.02;5.93;;;;;;;;;;4839958;29;20038;-76
2021/12/04 02:08:06;;;;;;;7.07;4.30;;;;;;;;;;4839561;29;20033;-77
2021/12/04 02:10:33;;;;;;;7.82;4.60;;;;;;;;;;4838867;29;20050;-77
2021/12/04 02:12:59;;;;;;;12.05;6.45;;;;;;;;;;4839282;29;20045;-76
2021/12/04 02:15:26;;;;;;;12.93;5.95;;;;;;;;;;4824835;29;20050;-76
2021/12/04 02:17:52;;;;;;;11.98;6.97;;;;;;;;;;4838073;29;20489;-76
2021/12/04 02:20:22;;;;;;;11.85;6.13;;;;;;;;;;4821326;29;20035;-76
2021/12/04 02:22:49;;;;;;;11.35;6.15;;;;;;;;;;4838560;29;20866;-76
2021/12/04 02:25:16;;;;;;;10.45;4.93;;;;;;;;;;4839110;29;20034;-76
2021/12/04 02:27:42;;;;;;;13.82;6.28;;;;;;;;;;4823806;29;20034;-76
2021/12/04 02:30:10;;;;;;;10.63;5.07;;;;;;;;;;4839365;29;20053;-76
2021/12/04 02:32:36;;;;;;;11.35;5.53;;;;;;;;;;4838447;29;20053;-75
2021/12/04 02:35:03;;;;;;;11.50;5.10;;;;;;;;;;4839256;29;20326;-76
2021/12/04 02:37:29;;;;;;;12.77;6.45;;;;;;;;;;4838551;29;20053;-76
2021/12/04 02:39:59;;;;;;;7.43;3.72;;;;;;;;;;4838434;29;20057;-76
2021/12/04 02:42:28;;;;;;;8.10;3.30;;;;;;;;;;4830122;29;20800;-76
2021/12/04 02:44:54;;;;;;;7.05;2.97;;;;;;;;;;4821168;29;20041;-76
2021/12/04 02:47:21;;;;;;;10.75;3.63;;;;;;;;;;4826969;29;20038;-76
2021/12/04 02:49:47;;;;;;;7.40;2.65;;;;;;;;;;4838611;29;20702;-76
2021/12/04 02:52:14;;;;;;;8.27;2.90;;;;;;;;;;4838820;29;20686;-76
2021/12/04 02:54:40;;;;;;;6.85;3.15;;;;;;;;;;4824044;29;20156;-76
2021/12/04 02:57:07;;;;;;;10.82;5.45;;;;;;;;;;4820860;29;20382;-76
2021/12/04 02:59:35;;;;;;;8.13;3.55;;;;;;;;;;4820363;29;20042;-76
2021/12/04 03:02:01;;;;;;;6.38;2.63;;;;;;;;;;4820773;29;20038;-77
2021/12/04 03:04:28;;;;;;;8.10;2.78;;;;;;;;;;4824523;29;20041;-77
2021/12/04 03:06:54;;;;;;;7.15;3.00;;;;;;;;;;4837174;29;20084;-76
2021/12/04 03:09:20;;;;;;;8.32;3.22;;;;;;;;;;4830346;29;20725;-76
2021/12/04 03:11:47;;;;;;;4.03;1.25;;;;;;;;;;4840054;29;20042;-76
2021/12/04 03:14:13;;;;;;;4.50;1.55;;;;;;;;;;4825746;29;20476;-76
2021/12/04 03:16:41;;;;;;;4.55;1.80;;;;;;;;;;4842382;29;20058;-76
2021/12/04 03:19:07;;;;;;;5.00;2.25;;;;;;;;;;4842173;29;20491;-76
2021/12/04 03:21:36;;;;;;;4.88;1.42;;;;;;;;;;4837114;29;20050;-76
2021/12/04 03:24:05;;;;;;;7.35;2.53;;;;;;;;;;4842016;29;20471;-76
2021/12/04 03:26:31;;;;;;;7.38;3.28;;;;;;;;;;4841768;29;20121;-77
2021/12/04 03:29:00;;;;;;;4.53;1.63;;;;;;;;;;4842286;29;20426;-76
2021/12/04 03:42:12;;;;;;;5.22;1.42;;;;;;;;;;4841157;29;20086;-76
2021/12/04 03:44:39;;;;;;;3.38;1.60;;;;;;;;;;4823669;29;20042;-76
2021/12/04 03:47:06;;;;;;;4.57;1.83;;;;;;;;;;4823811;29;20030;-76
2021/12/04 03:49:33;;;;;;;9.65;1.73;;;;;;;;;;4840005;29;20483;-76
2021/12/04 03:51:59;;;;;;;5.32;2.00;;;;;;;;;;4841810;29;20034;-76
2021/12/04 03:54:25;;;;;;;3.78;1.77;;;;;;;;;;4836642;29;20045;-76
2021/12/04 03:57:00;;;;;;;5.40;2.00;;;;;;;;;;4839451;29;20416;-76
2021/12/04 03:59:27;;;;;;;4.88;1.83;;;;;;;;;;4841867;29;20029;-76
2021/12/04 04:01:53;;;;;;;4.35;1.30;;;;;;;;;;4841459;29;20113;-76
2021/12/04 04:04:19;;;;;;;4.07;1.55;;;;;;;;;;4841359;29;20038;-77
2021/12/04 04:06:45;;;;;;;6.53;2.22;;;;;;;;;;4841408;29;20045;-77
2021/12/04 04:09:11;;;;;;;5.53;2.63;;;;;;;;;;4841131;29;20038;-77
2021/12/04 04:11:37;;;;;;;4.65;2.08;;;;;;;;;;4841625;29;20446;-76
2021/12/04 04:14:04;;;;;;;6.50;3.28;;;;;;;;;;4841083;29;20033;-77
2021/12/04 04:16:31;;;;;;;6.05;2.83;;;;;;;;;;4823205;29;20064;-77
2021/12/04 04:18:57;;;;;;;4.50;2.15;;;;;;;;;;4822798;29;20705;-76
2021/12/04 04:21:23;;;;;;;3.33;1.15;;;;;;;;;;4838945;29;20049;-76
2021/12/04 04:23:49;;;;;;;6.88;1.65;;;;;;;;;;4841309;29;20033;-76
2021/12/04 04:26:15;;;;;;;5.88;2.00;;;;;;;;;;4841028;29;20539;-77
2021/12/04 04:28:41;;;;;;;6.55;2.88;;;;;;;;;;4833565;29;20045;-77
2021/12/04 04:31:08;;;;;;;5.22;1.50;;;;;;;;;;4841062;29;20061;-77
2021/12/04 04:33:39;;;;;;;3.03;1.20;;;;;;;;;;4841292;29;20097;-77
2021/12/04 04:36:13;;;;;;;3.10;1.17;;;;;;;;;;4841158;29;20137;-76
2021/12/04 04:38:47;;;;;;;5.03;1.48;;;;;;;;;;4826362;29;20038;-76
2021/12/04 04:58:42;;;;;;;5.22;2.15;;;;;;;;;;4840859;29;20049;-76
2021/12/04 05:11:24;;;;;;;5.55;1.15;;;;;;;;;;4821813;29;20053;-76
2021/12/04 05:13:51;;;;;;;3.88;1.60;;;;;;;;;;4822246;29;20041;-76
2021/12/04 05:16:20;;;;;;;5.20;1.55;;;;;;;;;;4828946;29;20064;-76
2021/12/04 05:18:54;;;;;;;6.18;1.27;;;;;;;;;;4840397;29;20468;-76
2021/12/04 05:21:20;;;;;;;4.75;1.45;;;;;;;;;;4839454;29;20499;-76
2021/12/04 05:23:53;;;;;;;4.43;1.92;;;;;;;;;;4840462;29;20030;-76
2021/12/04 05:26:27;;;;;;;4.35;1.73;;;;;;;;;;4835806;29;20366;-77
2021/12/04 05:28:58;;;;;;;4.72;1.73;;;;;;;;;;4822025;29;20030;-76
2021/12/04 05:31:24;;;;;;;5.37;2.33;;;;;;;;;;4824963;29;20046;-76
2021/12/04 05:33:50;;;;;;;6.25;2.33;;;;;;;;;;4839895;29;20267;-76
2021/12/04 05:36:16;;;;;;;4.07;1.50;;;;;;;;;;4839200;29;20113;-77
2021/12/04 05:38:43;;;;;;;3.53;1.48;;;;;;;;;;4839858;29;20116;-76
2021/12/04 05:41:09;;;;;;;3.13;1.45;;;;;;;;;;4839495;29;20057;-77
2021/12/04 05:43:36;;;;;;;5.45;2.28;;;;;;;;;;4839776;29;20392;-76
2021/12/04 05:46:15;;;;;;;6.35;1.70;;;;;;;;;;4840408;29;20030;-76
2021/12/04 05:56:15;;;;;;;7.60;3.40;;;;;;;;;;4833706;29;20046;-77
2021/12/04 05:58:41;;;;;;;11.73;5.10;;;;;;;;;;4829830;29;20120;-76
2021/12/04 06:01:08;;;;;;;7.82;3.40;;;;;;;;;;4840067;29;20113;-76
2021/12/04 06:03:34;;;;;;;7.85;3.55;;;;;;;;;;4832246;29;20773;-77
2021/12/04 06:06:01;;;;;;;7.78;3.65;;;;;;;;;;4835068;29;20692;-76
2021/12/04 06:08:27;;;;;;;8.82;2.45;;;;;;;;;;4821615;29;20793;-76
2021/12/04 06:10:53;;;;;;;6.30;2.10;;;;;;;;;;4822546;29;20126;-76
2021/12/04 06:13:19;;;;;;;7.88;2.30;;;;;;;;;;4837493;29;20411;-77
2021/12/04 06:15:46;;;;;;;5.13;2.35;;;;;;;;;;4833205;29;20113;-77
2021/12/04 06:18:15;;;;;;;4.82;2.28;;;;;;;;;;4828735;29;20041;-77
2021/12/04 06:23:26;;;;;;;7.68;2.90;;;;;;;;;;4832179;29;20115;-76
2021/12/04 06:25:52;;;;;;;5.30;2.65;;;;;;;;;;4839109;29;20037;-76
2021/12/04 06:28:18;;;;;;;7.05;3.70;;;;;;;;;;4835821;29;20042;-77
2021/12/04 06:30:45;;;;;;;9.10;3.45;;;;;;;;;;4827703;29;20073;-77
2021/12/04 06:33:12;;;;;;;11.20;4.85;;;;;;;;;;4831210;29;20057;-76
2021/12/04 06:35:41;;;;;;;9.70;3.88;;;;;;;;;;4823578;29;20038;-77
2021/12/04 06:38:08;;;;;;;9.80;5.00;;;;;;;;;;4820757;29;20042;-77
2021/12/04 06:40:34;;;;;;;8.55;4.95;;;;;;;;;;4832433;29;20099;-77
2021/12/04 06:43:00;;;;;;;7.55;3.40;;;;;;;;;;4830816;29;20042;-77
2021/12/04 06:45:28;;;;;;;7.65;2.72;;;;;;;;;;4835379;29;20026;-77
2021/12/04 06:48:00;;;;;;;9.10;3.63;;;;;;;;;;4838599;29;20042;-77
2021/12/04 06:50:38;;;;;;;12.50;4.45;;;;;;;;;;4828190;29;20038;-77
2021/12/04 06:53:14;;;;;;;7.93;4.35;;;;;;;;;;4822834;29;20133;-77
2021/12/04 06:55:44;;;;;;;12.95;5.72;;;;;;;;;;4839350;29;20491;-77
2021/12/04 06:58:10;;;;;;;9.32;4.10;;;;;;;;;;4834900;29;20042;-76
2021/12/04 07:00:36;;;;;;;8.38;4.03;;;;;;;;;;4838032;29;20069;-77
2021/12/04 07:03:03;;;;;;;8.30;4.72;;;;;;;;;;4837027;29;20133;-77
2021/12/04 07:05:29;;;;;;;12.60;6.30;;;;;;;;;;4832532;29;20474;-77
2021/12/04 07:07:55;;;;;;;12.38;6.22;;;;;;;;;;4836537;29;20040;-79
2021/12/04 07:10:21;;;;;;;16.20;7.53;;;;;;;;;;4830304;29;20035;-78
2021/12/04 07:12:47;;;;;;;13.75;8.80;;;;;;;;;;4833703;29;20095;-78
2021/12/04 07:15:13;;;;;;;14.50;7.80;;;;;;;;;;4836316;29;20565;-77
2021/12/04 07:17:39;;;;;;;13.45;7.18;;;;;;;;;;4838047;29;20049;-78
2021/12/04 07:20:06;;;;;;;16.42;7.72;;;;;;;;;;4838392;29;20066;-78
2021/12/04 07:22:32;;;;;;;13.93;7.00;;;;;;;;;;4838087;29;20038;-78
2021/12/04 07:24:58;;;;;;;12.60;5.13;;;;;;;;;;4837462;29;20653;-78
2021/12/04 07:27:25;;;;;;;12.45;6.85;;;;;;;;;;4834578;29;20042;-78
2021/12/04 07:29:51;;;;;;;13.18;6.85;;;;;;;;;;4837234;29;20030;-78
2021/12/04 07:32:17;;;;;;;10.45;4.95;;;;;;;;;;4832233;29;20067;-78
2021/12/04 07:34:43;;;;;;;13.18;7.47;;;;;;;;;;4830967;29;20062;-78
2021/12/04 07:37:09;;;;;;;27.02;7.13;;;;;;;;;;4827533;29;20062;-79
2021/12/04 07:39:35;;;;;;;17.77;7.82;;;;;;;;;;4830290;29;20134;-79
2021/12/04 07:42:01;;;;;;;35.42;12.88;;;;;;;;;;4838318;29;20116;-77
2021/12/04 07:44:27;;;;;;;30.05;10.15;;;;;;;;;;4830500;29;20045;-79
2021/12/04 07:46:53;;;;;;;19.10;9.10;;;;;;;;;;4832394;29;20045;-79
2021/12/04 07:49:19;;;;;;;27.00;14.48;;;;;;;;;;4837878;29;20410;-78
2021/12/04 07:51:47;;;;;;;25.90;13.02;;;;;;;;;;4838582;29;20083;-78
2021/12/04 07:54:13;;;;;;;19.17;9.20;;;;;;;;;;4833461;29;20042;-78
2021/12/04 07:56:39;;;;;;;17.65;9.45;;;;;;;;;;4840990;29;20105;-79
2021/12/04 07:59:05;;;;;;;15.65;8.65;;;;;;;;;;4840805;29;20065;-78
2021/12/04 08:01:31;;;;;;;12.43;4.80;;;;;;;;;;4841365;29;20042;-79
2021/12/04 08:03:57;;;;;;;18.33;10.02;;;;;;;;;;4840574;29;20030;-79
2021/12/04 08:06:23;;;;;;;18.00;11.32;;;;;;;;;;4837451;29;20048;-79
2021/12/04 08:08:52;;;;;;;18.55;10.80;;;;;;;;;;4833758;29;20073;-77
2021/12/04 08:11:18;;;;;;;14.40;8.73;;;;;;;;;;4829585;29;20129;-78
2021/12/04 08:13:44;;;;;;;21.27;13.93;;;;;;;;;;4850101;29;20104;-78
2021/12/04 08:16:10;;;;;;;10.02;5.10;;;;;;;;;;4852457;29;20210;-79
2021/12/04 08:18:36;;;;;;;14.75;9.02;;;;;;;;;;4841383;29;20046;-78
2021/12/04 08:21:02;;;;;;;18.17;12.77;;;;;;;;;;4843954;29;20037;-77
2021/12/04 08:23:28;;;;;;;15.13;9.13;;;;;;;;;;4835372;29;20030;-77
2021/12/04 08:25:56;;;;;;;19.05;14.10;;;;;;;;;;4841404;29;20075;-77
2021/12/04 08:28:22;;;;;;;15.55;10.23;;;;;;;;;;4832490;29;20029;-77
2021/12/04 08:30:48;;;;;;;19.38;7.25;;;;;;;;;;4837939;29;20054;-78
2021/12/04 08:33:14;;;;;;;16.58;5.72;;;;;;;;;;4840173;29;20073;-78
2021/12/04 08:35:40;;;;;;;37.30;22.20;;;;;;;;;;4822888;29;20038;-78
2021/12/04 08:38:11;;;;;;;28.17;14.73;;;;;;;;;;4840542;29;20480;-78
2021/12/04 08:40:38;;;;;;;10.95;5.50;;;;;;;;;;4836721;29;20081;-79
2021/12/04 08:43:05;;;;;;;8.00;3.17;;;;;;;;;;4833695;29;20052;-79
2021/12/04 08:45:31;;;;;;;45.63;27.60;;;;;;;;;;4835647;29;20047;-78
2021/12/04 08:47:57;;;;;;;19.00;10.95;;;;;;;;;;4834859;29;20034;-78
2021/12/04 08:50:25;;;;;;;22.90;12.20;;;;;;;;;;4840761;29;20037;-78
2021/12/04 08:52:51;;;;;;;15.32;9.80;;;;;;;;;;4841771;29;20062;-78
2021/12/04 08:55:18;;;;;;;24.08;17.13;;;;;;;;;;4838407;29;20493;-78
2021/12/04 08:57:44;;;;;;;20.55;14.18;;;;;;;;;;4840517;29;20069;-78
2021/12/04 09:00:15;;;;;;;23.90;16.33;;;;;;;;;;4839617;29;20042;-78
2021/12/04 09:02:42;;;;;;;29.50;16.27;;;;;;;;;;4822296;29;20026;-78
2021/12/04 09:05:09;;;;;;;33.03;18.42;;;;;;;;;;4821848;29;20065;-78
2021/12/04 09:07:35;;;;;;;59.83;34.45;;;;;;;;;;4836949;29;20129;-78
2021/12/04 09:10:01;;;;;;;33.55;19.80;;;;;;;;;;4840827;29;20045;-78
2021/12/04 09:12:28;;;;;;;29.02;16.25;;;;;;;;;;4840318;29;20041;-78
2021/12/04 09:14:55;;;;;;;93.32;53.70;;;;;;;;;;4840871;29;20037;-78
2021/12/04 09:17:22;;;;;;;70.43;42.40;;;;;;;;;;4839995;29;20052;-78
2021/12/04 09:19:49;;;;;;;54.67;30.63;;;;;;;;;;4840363;29;20045;-78
2021/12/04 09:22:17;;;;;;;57.50;41.65;;;;;;;;;;4831002;29;20604;-77
2021/12/04 09:24:47;;;;;;;56.70;37.75;;;;;;;;;;4822343;29;20054;-77
2021/12/04 09:59:38;;;;;;;32.03;19.15;;;;;;;;;;4826335;29;20077;-77
2021/12/04 10:05:09;;;;;;;31.95;20.55;;;;;;;;;;4821052;29;20053;-78
2021/12/04 10:34:47;;;;;;;24.55;16.15;;;;;;;;;;4820744;29;20140;-78
2021/12/04 10:37:17;;;;;;;26.85;16.00;;;;;;;;;;4833821;29;20122;-78
2021/12/04 10:39:43;;;;;;;28.65;17.17;;;;;;;;;;4834466;29;20038;-78
2021/12/04 10:42:14;;;;;;;28.05;17.52;;;;;;;;;;4832158;29;20400;-87
2021/12/04 10:44:42;;;;;;;35.88;22.35;;;;;;;;;;4837035;29;20030;-79
2021/12/04 10:47:12;;;;;;;43.33;29.75;;;;;;;;;;4837888;29;20034;-80
2021/12/04 10:52:19;;;;;;;28.42;18.70;;;;;;;;;;4836753;29;20543;-79
2021/12/04 10:54:52;;;;;;;25.88;19.95;;;;;;;;;;4828240;29;20479;-80
2021/12/04 11:00:08;;;;;;;32.60;21.60;;;;;;;;;;4829853;29;20764;-80
2021/12/04 11:02:43;;;;;;;53.85;36.63;;;;;;;;;;4826936;29;20416;-80
2021/12/04 11:19:02;;;;;;;62.60;34.65;;;;;;;;;;4834328;29;20094;-80
2021/12/04 11:40:51;;;;;;;27.88;19.58;;;;;;;;;;4833094;29;20069;-78
2021/12/04 11:43:19;;;;;;;25.73;20.90;;;;;;;;;;4841741;29;20438;-79
2021/12/04 11:45:59;;;;;;;29.02;22.17;;;;;;;;;;4842044;29;20034;-79
2021/12/04 11:48:36;;;;;;;32.60;27.25;;;;;;;;;;4841353;29;20114;-78
2021/12/04 11:51:03;;;;;;;29.23;20.52;;;;;;;;;;4842310;29;20042;-78
2021/12/04 11:53:31;;;;;;;42.80;32.53;;;;;;;;;;4840777;29;20049;-78
2021/12/04 11:55:57;;;;;;;31.10;21.35;;;;;;;;;;4842664;29;20041;-78
2021/12/04 11:58:28;;;;;;;30.65;23.13;;;;;;;;;;4841591;29;20038;-78
2021/12/04 12:00:56;;;;;;;32.35;24.85;;;;;;;;;;4842401;29;20045;-78
2021/12/04 12:03:23;;;;;;;29.98;22.65;;;;;;;;;;4841287;29;20120;-78
2021/12/04 12:05:54;;;;;;;41.58;31.83;;;;;;;;;;4842383;29;20029;-78
2021/12/04 12:08:30;;;;;;;39.80;31.30;;;;;;;;;;4841305;29;20042;-78
2021/12/04 12:11:03;;;;;;;50.58;32.63;;;;;;;;;;4842185;29;20485;-77
2021/12/04 12:13:37;;;;;;;39.17;27.33;;;;;;;;;;4824568;29;20478;-78
2021/12/04 12:16:10;;;;;;;34.63;23.52;;;;;;;;;;4840912;29;20034;-78
2021/12/04 12:18:50;;;;;;;50.95;37.97;;;;;;;;;;4827012;29;20046;-77
2021/12/04 12:21:20;;;;;;;38.60;26.38;;;;;;;;;;4828008;29;20038;-78
2021/12/04 12:26:56;;;;;;;12.32;6.35;;;;;;;;;;4841647;29;20137;-77
2021/12/04 12:32:36;;;;;;;4.07;1.70;;;;;;;;;;4840925;29;20061;-77
2021/12/04 12:37:48;;;;;;;15.98;10.38;;;;;;;;;;4840631;29;20118;-77
2021/12/04 12:40:14;;;;;;;15.65;11.40;;;;;;;;;;4840898;29;20133;-78
2021/12/04 12:42:42;;;;;;;19.38;13.10;;;;;;;;;;4840253;29;20481;-77
2021/12/04 12:45:35;;;;;;;16.30;8.52;;;;;;;;;;4841125;29;20038;-77
2021/12/04 12:48:09;;;;;;;14.02;8.45;;;;;;;;;;4838367;29;20053;-77
2021/12/04 12:50:39;;;;;;;17.42;9.55;;;;;;;;;;4841176;29;20709;-77
2021/12/04 12:53:08;;;;;;;15.27;10.13;;;;;;;;;;4837787;29;20045;-77
2021/12/04 12:55:35;;;;;;;11.82;8.18;;;;;;;;;;4822613;29;20737;-77
2021/12/04 12:58:16;;;;;;;14.80;10.13;;;;;;;;;;4840753;29;20041;-77
2021/12/04 13:12:03;;;;;;;9.05;4.00;;;;;;;;;;4840949;29;20079;-78
2021/12/04 13:14:35;;;;;;;4.80;2.13;;;;;;;;;;4837894;29;20079;-78
2021/12/04 13:17:01;;;;;;;9.95;6.05;;;;;;;;;;4833434;29;20049;-78
2021/12/04 13:19:28;;;;;;;14.68;9.55;;;;;;;;;;4829087;29;20038;-76
2021/12/04 13:21:56;;;;;;;17.27;11.88;;;;;;;;;;4837803;29;20041;-79
2021/12/04 13:24:24;;;;;;;14.43;8.90;;;;;;;;;;4840371;29;20070;-79
2021/12/04 13:26:52;;;;;;;8.23;5.20;;;;;;;;;;4839573;29;20070;-80
2021/12/04 13:29:19;;;;;;;10.68;5.85;;;;;;;;;;4840502;29;20034;-81
2021/12/04 13:31:46;;;;;;;10.80;6.55;;;;;;;;;;4839609;29;20042;-80
2021/12/04 13:34:13;;;;;;;12.02;5.43;;;;;;;;;;4822391;29;20042;-79
2021/12/04 13:36:39;;;;;;;12.73;8.23;;;;;;;;;;4835323;29;20585;-80
2021/12/04 13:39:12;;;;;;;14.60;9.43;;;;;;;;;;4821522;29;20457;-80
2021/12/04 13:41:40;;;;;;;23.48;17.90;;;;;;;;;;4821262;29;20038;-78
2021/12/04 13:44:08;;;;;;;37.90;20.35;;;;;;;;;;4822124;29;20114;-80
2021/12/04 13:46:45;;;;;;;31.42;20.77;;;;;;;;;;4815172;29;20401;-80
2021/12/04 13:49:12;;;;;;;13.00;7.95;;;;;;;;;;4833837;29;20110;-80
2021/12/04 13:51:39;;;;;;;23.02;9.90;;;;;;;;;;4825699;29;20046;-80
2021/12/04 13:54:06;;;;;;;19.30;11.05;;;;;;;;;;4834335;29;20034;-80
2021/12/04 13:56:33;;;;;;;18.63;12.38;;;;;;;;;;4822507;29;20042;-80
2021/12/04 13:59:01;;;;;;;29.10;23.20;;;;;;;;;;4815368;29;20034;-80
2021/12/04 14:01:29;;;;;;;23.02;17.33;;;;;;;;;;4822686;29;20128;-80
2021/12/04 14:03:56;;;;;;;29.65;22.38;;;;;;;;;;4818924;29;20048;-80
2021/12/04 14:06:22;;;;;;;22.95;13.68;;;;;;;;;;4822092;29;20038;-80
2021/12/04 14:09:16;;;;;;;26.33;16.15;;;;;;;;;;4831750;29;20034;-80
2021/12/04 14:11:42;;;;;;;41.00;24.05;;;;;;;;;;4822407;29;20062;-80
2021/12/04 14:14:17;;;;;;;24.40;15.70;;;;;;;;;;4826504;29;20738;-80
2021/12/04 14:16:44;;;;;;;19.58;12.65;;;;;;;;;;4828804;29;20041;-79
2021/12/04 14:19:15;;;;;;;33.08;22.40;;;;;;;;;;4831951;29;20082;-80
2021/12/04 14:21:41;;;;;;;22.42;13.40;;;;;;;;;;4828003;29;20133;-80
2021/12/04 14:24:07;;;;;;;13.90;10.00;;;;;;;;;;4834863;29;20381;-80
2021/12/04 14:26:33;;;;;;;13.57;9.20;;;;;;;;;;4836314;29;20066;-80
2021/12/04 14:28:59;;;;;;;31.50;17.05;;;;;;;;;;4836063;29;20123;-80
2021/12/04 14:31:26;;;;;;;20.48;12.85;;;;;;;;;;4823399;29;20060;-80
2021/12/04 14:33:52;;;;;;;21.33;15.85;;;;;;;;;;4835588;29;20029;-80
2021/12/04 14:36:19;;;;;;;26.10;16.13;;;;;;;;;;4836478;29;20507;-80
2021/12/04 14:38:47;;;;;;;50.45;31.00;;;;;;;;;;4811274;29;20039;-80
2021/12/04 14:41:14;;;;;;;39.45;24.17;;;;;;;;;;4824220;29;20497;-80
2021/12/04 14:43:41;;;;;;;24.55;17.30;;;;;;;;;;4831975;29;20054;-80
2021/12/04 14:46:11;;;;;;;22.23;14.52;;;;;;;;;;4822153;29;20038;-80
2021/12/04 14:48:44;;;;;;;18.33;12.68;;;;;;;;;;4838033;29;20082;-80
2021/12/04 14:51:14;;;;;;;24.77;16.42;;;;;;;;;;4837288;29;20038;-80
2021/12/04 14:53:49;;;;;;;55.88;42.75;;;;;;;;;;4829376;29;20037;-80
2021/12/04 14:56:15;;;;;;;31.58;18.85;;;;;;;;;;4834811;29;20093;-80
2021/12/04 14:58:41;;;;;;;145.43;115.93;;;;;;;;;;4827282;29;20392;-80
2021/12/04 15:01:12;;;;;;;69.95;52.25;;;;;;;;;;4836114;29;20045;-79
2021/12/04 15:03:43;;;;;;;28.40;18.98;;;;;;;;;;4834763;29;20098;-80
2021/12/04 15:06:12;;;;;;;17.40;10.57;;;;;;;;;;4839951;29;20069;-80
2021/12/04 15:08:43;;;;;;;13.23;7.55;;;;;;;;;;4840931;29;20045;-80
2021/12/04 15:11:11;;;;;;;17.58;9.38;;;;;;;;;;4839839;29;20492;-79
2021/12/04 15:13:45;;;;;;;221.63;119.68;;;;;;;;;;4834250;29;20065;-78
2021/12/04 15:16:15;;;;;;;26.40;15.20;;;;;;;;;;4839320;29;20397;-77
2021/12/04 15:18:41;;;;;;;38.70;13.93;;;;;;;;;;4839606;29;20030;-79
2021/12/04 15:21:15;;;;;;;8.30;4.30;;;;;;;;;;4839317;29;20081;-79
2021/12/04 15:23:42;;;;;;;7.85;3.30;;;;;;;;;;4834923;29;20127;-80
2021/12/04 15:26:10;;;;;;;7.65;2.50;;;;;;;;;;4836988;29;20037;-79
2021/12/04 15:28:37;;;;;;;82.10;46.63;;;;;;;;;;4841960;29;20034;-79
2021/12/04 15:31:04;;;;;;;15.63;8.07;;;;;;;;;;4838729;29;20042;-79
2021/12/04 15:33:35;;;;;;;5.85;2.13;;;;;;;;;;4841959;29;20046;-80
2021/12/04 15:36:01;;;;;;;7.82;4.20;;;;;;;;;;4834804;29;20065;-80
2021/12/04 15:38:36;;;;;;;386.80;123.22;;;;;;;;;;4842187;29;20038;-80
2021/12/04 15:43:57;;;;;;;62.30;20.88;;;;;;;;;;4836578;29;20050;-80
2021/12/04 15:49:24;;;;;;;13.07;4.20;;;;;;;;;;4842261;29;20094;-80
2021/12/04 15:54:45;;;;;;;40.88;32.88;;;;;;;;;;4836306;29;20053;-79
2021/12/04 15:57:14;;;;;;;64.82;52.30;;;;;;;;;;4839862;29;20034;-80
2021/12/04 15:59:45;;;;;;;143.40;106.70;;;;;;;;;;4828835;29;20039;-79
2021/12/04 16:02:13;;;;;;;29.60;18.48;;;;;;;;;;4836348;29;20050;-79
2021/12/04 16:04:39;;;;;;;17.83;10.27;;;;;;;;;;4841607;29;20051;-79
2021/12/04 16:07:06;;;;;;;16.98;9.98;;;;;;;;;;4834569;29;20389;-79
2021/12/04 16:09:37;;;;;;;220.50;163.32;;;;;;;;;;4821908;29;20042;-79
2021/12/04 16:12:05;;;;;;;227.00;172.18;;;;;;;;;;4833312;29;20041;-79
2021/12/04 16:14:32;;;;;;;86.25;63.80;;;;;;;;;;4838281;29;20044;-79
2021/12/04 16:16:59;;;;;;;36.40;27.33;;;;;;;;;;4830571;29;20067;-79
2021/12/04 16:19:27;;;;;;;56.72;46.05;;;;;;;;;;4840260;29;20041;-79
2021/12/04 16:21:59;;;;;;;53.95;30.30;;;;;;;;;;4819772;29;20065;-79
2021/12/04 16:24:26;;;;;;;20.63;11.48;;;;;;;;;;4841342;29;20171;-79
2021/12/04 16:26:57;;;;;;;186.98;158.35;;;;;;;;;;4831452;29;20034;-80
2021/12/04 16:29:25;;;;;;;56.13;42.88;;;;;;;;;;4824660;29;20097;-79
2021/12/04 16:37:42;;;;;;;15.20;9.15;;;;;;;;;;4833886;29;20070;-80
2021/12/04 16:40:13;;;;;;;30.00;20.75;;;;;;;;;;4842507;29;20142;-80
2021/12/04 16:42:40;;;;;;;17.08;8.50;;;;;;;;;;4834980;29;20498;-80
2021/12/04 16:45:07;;;;;;;14.80;8.95;;;;;;;;;;4841126;29;20034;-80
2021/12/04 16:47:41;;;;;;;18.52;9.52;;;;;;;;;;4838430;29;20063;-80
2021/12/04 16:50:12;;;;;;;20.33;11.23;;;;;;;;;;4841281;29;20036;-80
2021/12/04 16:55:40;;;;;;;27.38;14.13;;;;;;;;;;4834914;29;20389;-80
2021/12/04 16:58:12;;;;;;;26.48;15.48;;;;;;;;;;4831404;29;20396;-81
2021/12/04 17:00:43;;;;;;;25.30;17.00;;;;;;;;;;4834665;29;20034;-80
2021/12/04 17:03:09;;;;;;;36.17;31.80;;;;;;;;;;4826945;29;20082;-80
2021/12/04 17:05:35;;;;;;;31.55;24.90;;;;;;;;;;4832345;29;20038;-80
2021/12/04 17:08:01;;;;;;;30.83;24.00;;;;;;;;;;4836314;29;20506;-80
2021/12/04 17:10:28;;;;;;;33.42;23.77;;;;;;;;;;4836318;29;20045;-79
2021/12/04 17:12:54;;;;;;;35.85;25.17;;;;;;;;;;4842140;29;20775;-80
2021/12/04 17:15:21;;;;;;;63.83;38.28;;;;;;;;;;4841908;29;20559;-80
2021/12/04 17:17:47;;;;;;;49.30;29.58;;;;;;;;;;4839203;29;20065;-79
2021/12/04 17:20:15;;;;;;;51.45;31.45;;;;;;;;;;4827762;29;20079;-79
2021/12/04 17:22:41;;;;;;;68.78;40.05;;;;;;;;;;4840085;29;20136;-79
2021/12/04 17:25:08;;;;;;;84.10;48.40;;;;;;;;;;4828405;29;20038;-80
2021/12/04 17:27:34;;;;;;;73.95;40.90;;;;;;;;;;4836998;29;20045;-80
2021/12/04 17:30:02;;;;;;;48.10;29.25;;;;;;;;;;4836242;29;20488;-80
2021/12/04 17:32:29;;;;;;;36.60;22.58;;;;;;;;;;4838274;29;20032;-80
2021/12/04 17:34:56;;;;;;;16.13;9.40;;;;;;;;;;4841524;29;20037;-79
2021/12/04 17:37:23;;;;;;;14.77;7.35;;;;;;;;;;4831934;29;20393;-79
2021/12/04 17:39:52;;;;;;;8.10;4.25;;;;;;;;;;4831742;29;20107;-80
2021/12/04 17:42:18;;;;;;;18.98;9.65;;;;;;;;;;4828879;29;20042;-79
2021/12/04 17:44:44;;;;;;;15.25;8.27;;;;;;;;;;4830639;29;20041;-80
2021/12/04 17:47:10;;;;;;;19.55;13.30;;;;;;;;;;4831948;29;20037;-79
2021/12/04 17:49:36;;;;;;;25.80;17.77;;;;;;;;;;4836720;29;20113;-80
2021/12/04 17:52:04;;;;;;;35.85;21.80;;;;;;;;;;4825564;29;20125;-78